Time;durP1;ratioP1;P1;durP2;ratioP2;P2;SDS_P1;SDS_P2;PMS_P1;PMS_P2;Temp;Humidity;BMP_temperature;BMP_pressure;BME280_temperature;BME280_humidity;BME280_pressure;Samples;Min_cycle;Max_cycle;Signal;HPM_P1;HPM_P2
2021/01/06 00:00:48;;;;;;;56.00;21.63;;;;;;;;;;5032628;28;20623;-74
2021/01/06 00:03:52;;;;;;;55.40;21.07;;;;;;;;;;5032963;28;20570;-74
2021/01/06 00:06:56;;;;;;;51.40;22.43;;;;;;;;;;5020504;28;20940;-74
2021/01/06 00:10:01;;;;;;;53.87;21.07;;;;;;;;;;5032530;28;20634;-74
2021/01/06 00:13:05;;;;;;;55.90;22.53;;;;;;;;;;5020378;28;20604;-74
2021/01/06 00:16:09;;;;;;;54.53;20.83;;;;;;;;;;5020649;28;20547;-74
2021/01/06 00:19:13;;;;;;;52.73;21.10;;;;;;;;;;5020619;28;20627;-74
2021/01/06 00:22:17;;;;;;;50.80;20.80;;;;;;;;;;5020685;28;21076;-74
2021/01/06 00:25:28;;;;;;;53.00;20.87;;;;;;;;;;5032542;28;20556;-74
2021/01/06 00:28:32;;;;;;;55.63;21.63;;;;;;;;;;5020357;28;20540;-74
2021/01/06 00:31:41;;;;;;;54.90;21.87;;;;;;;;;;5032407;28;20599;-74
2021/01/06 00:34:46;;;;;;;57.73;22.47;;;;;;;;;;5020594;28;20537;-74
2021/01/06 00:37:50;;;;;;;56.87;21.57;;;;;;;;;;5023577;28;20540;-74
2021/01/06 00:40:55;;;;;;;56.63;22.03;;;;;;;;;;5035871;28;20643;-74
2021/01/06 00:44:00;;;;;;;54.03;21.57;;;;;;;;;;5036484;28;20540;-73
2021/01/06 00:47:03;;;;;;;49.53;21.90;;;;;;;;;;5035910;28;20551;-74
2021/01/06 00:50:09;;;;;;;57.27;22.13;;;;;;;;;;5023572;28;20622;-74
2021/01/06 00:53:16;;;;;;;56.23;22.03;;;;;;;;;;5035956;28;20921;-74
2021/01/06 00:56:30;;;;;;;51.20;21.50;;;;;;;;;;5012711;28;20540;-74
2021/01/06 00:59:34;;;;;;;56.57;22.47;;;;;;;;;;5023665;28;20618;-74
2021/01/06 01:02:39;;;;;;;52.63;21.07;;;;;;;;;;5023586;28;20552;-74
2021/01/06 01:05:45;;;;;;;53.77;21.93;;;;;;;;;;5023648;28;20539;-74
2021/01/06 01:08:49;;;;;;;52.87;21.17;;;;;;;;;;5023470;28;21084;-74
2021/01/06 01:11:53;;;;;;;50.37;21.17;;;;;;;;;;5035369;28;20548;-74
2021/01/06 01:14:57;;;;;;;49.57;20.53;;;;;;;;;;5035601;28;20540;-74
2021/01/06 01:18:04;;;;;;;55.23;23.07;;;;;;;;;;5035328;28;20552;-74
2021/01/06 01:21:08;;;;;;;62.57;23.33;;;;;;;;;;5035231;28;20544;-74
2021/01/06 01:24:12;;;;;;;55.77;21.87;;;;;;;;;;5035404;28;20536;-73
2021/01/06 01:27:16;;;;;;;50.00;21.47;;;;;;;;;;5035404;28;20543;-74
2021/01/06 01:30:26;;;;;;;57.17;21.73;;;;;;;;;;5035069;28;20622;-74
2021/01/06 01:33:31;;;;;;;62.30;22.77;;;;;;;;;;5023045;28;20591;-74
2021/01/06 01:36:35;;;;;;;56.20;21.57;;;;;;;;;;5023049;28;20540;-74
2021/01/06 01:39:39;;;;;;;58.30;22.07;;;;;;;;;;5022716;28;20623;-74
2021/01/06 01:42:43;;;;;;;60.70;21.67;;;;;;;;;;5022925;28;20544;-74
2021/01/06 01:45:50;;;;;;;61.60;22.50;;;;;;;;;;5023154;28;20540;-74
2021/01/06 01:48:56;;;;;;;59.10;22.63;;;;;;;;;;5023007;28;21068;-74
2021/01/06 01:52:08;;;;;;;57.67;22.70;;;;;;;;;;5022445;28;20594;-74
2021/01/06 01:55:15;;;;;;;54.60;22.50;;;;;;;;;;5034770;28;21099;-74
2021/01/06 01:58:24;;;;;;;55.40;21.43;;;;;;;;;;5034812;28;20544;-74
2021/01/06 02:01:29;;;;;;;61.10;21.03;;;;;;;;;;5022519;28;20548;-74
2021/01/06 02:04:54;;;;;;;64.27;22.07;;;;;;;;;;5034372;28;20540;-74
2021/01/06 02:08:04;;;;;;;64.83;23.07;;;;;;;;;;5022465;28;20541;-74
2021/01/06 02:11:16;;;;;;;58.90;23.33;;;;;;;;;;5022280;28;20560;-74
2021/01/06 02:14:27;;;;;;;57.00;23.50;;;;;;;;;;5022263;28;20592;-74
2021/01/06 02:17:31;;;;;;;59.83;22.00;;;;;;;;;;5022162;28;20556;-74
2021/01/06 02:20:36;;;;;;;64.57;23.33;;;;;;;;;;5034575;28;21202;-74
2021/01/06 02:23:42;;;;;;;57.50;21.10;;;;;;;;;;5034328;28;20544;-74
2021/01/06 02:26:46;;;;;;;74.73;23.67;;;;;;;;;;5034275;28;20548;-74
2021/01/06 02:29:50;;;;;;;56.53;22.97;;;;;;;;;;5034137;28;20619;-74
2021/01/06 02:32:55;;;;;;;54.97;20.37;;;;;;;;;;5021602;28;20560;-74
2021/01/06 02:35:59;;;;;;;57.27;21.00;;;;;;;;;;5021962;28;20544;-74
2021/01/06 02:39:09;;;;;;;77.47;23.77;;;;;;;;;;5021745;28;20623;-74
2021/01/06 02:42:14;;;;;;;76.90;23.63;;;;;;;;;;5033978;28;21056;-74
2021/01/06 02:45:19;;;;;;;55.67;21.10;;;;;;;;;;5033933;28;20540;-74
2021/01/06 02:48:24;;;;;;;67.80;24.77;;;;;;;;;;5021774;28;20548;-74
2021/01/06 02:51:58;;;;;;;103.40;24.43;;;;;;;;;;5021963;28;20540;-74
2021/01/06 02:55:07;;;;;;;65.40;22.40;;;;;;;;;;5033578;28;20611;-74
2021/01/06 02:58:14;;;;;;;70.43;22.93;;;;;;;;;;5010095;28;20544;-74
2021/01/06 03:01:23;;;;;;;61.50;21.53;;;;;;;;;;5021475;28;20886;-74
2021/01/06 03:04:32;;;;;;;72.23;23.23;;;;;;;;;;5033615;28;20540;-74
2021/01/06 03:07:36;;;;;;;73.67;19.57;;;;;;;;;;5021388;28;20595;-74
2021/01/06 03:10:40;;;;;;;57.30;20.40;;;;;;;;;;5033208;28;21186;-74
2021/01/06 03:13:44;;;;;;;102.67;21.33;;;;;;;;;;5021301;28;20591;-74
2021/01/06 03:16:49;;;;;;;53.60;20.23;;;;;;;;;;5033293;28;20607;-74
2021/01/06 03:20:17;;;;;;;70.97;21.53;;;;;;;;;;5033189;28;21190;-74
2021/01/06 03:23:32;;;;;;;74.47;21.80;;;;;;;;;;5033631;28;20547;-74
2021/01/06 03:26:38;;;;;;;60.43;20.40;;;;;;;;;;5033114;28;20560;-74
2021/01/06 03:29:45;;;;;;;94.30;20.47;;;;;;;;;;5020970;28;20626;-74
2021/01/06 03:33:07;;;;;;;54.33;19.83;;;;;;;;;;5033012;28;20556;-74
2021/01/06 03:36:23;;;;;;;64.13;23.00;;;;;;;;;;5021361;28;20544;-74
2021/01/06 03:39:34;;;;;;;94.63;22.50;;;;;;;;;;5032869;28;20627;-74
2021/01/06 03:42:40;;;;;;;80.37;19.77;;;;;;;;;;5032871;28;20556;-74
2021/01/06 03:45:50;;;;;;;74.30;19.70;;;;;;;;;;5032871;28;20894;-74
2021/01/06 03:49:18;;;;;;;171.20;23.47;;;;;;;;;;5009440;28;20539;-74
2021/01/06 03:52:45;;;;;;;51.30;19.10;;;;;;;;;;5009447;28;20539;-74
2021/01/06 03:55:59;;;;;;;87.27;20.67;;;;;;;;;;5032767;28;20545;-74
2021/01/06 03:59:15;;;;;;;75.33;20.37;;;;;;;;;;5020542;28;20614;-74
2021/01/06 04:02:31;;;;;;;183.70;22.80;;;;;;;;;;5020690;28;21085;-74
2021/01/06 04:05:35;;;;;;;86.27;21.33;;;;;;;;;;5009475;28;20897;-74
2021/01/06 04:08:50;;;;;;;63.87;22.63;;;;;;;;;;5032840;28;20544;-74
2021/01/06 04:12:14;;;;;;;83.37;21.50;;;;;;;;;;5022267;28;20556;-74
2021/01/06 04:15:18;;;;;;;71.47;20.53;;;;;;;;;;5013546;28;20588;-74
2021/01/06 04:18:23;;;;;;;55.30;21.10;;;;;;;;;;5024578;28;20540;-74
2021/01/06 04:21:29;;;;;;;94.03;20.27;;;;;;;;;;5024482;28;20539;-74
2021/01/06 04:24:33;;;;;;;61.83;19.40;;;;;;;;;;5036309;28;20539;-74
2021/01/06 04:27:38;;;;;;;46.70;18.77;;;;;;;;;;5036481;28;20548;-74
2021/01/06 04:30:48;;;;;;;88.93;21.80;;;;;;;;;;5036386;28;20622;-74
2021/01/06 04:33:54;;;;;;;120.60;20.93;;;;;;;;;;5023897;28;20595;-74
2021/01/06 04:36:58;;;;;;;171.07;23.00;;;;;;;;;;5012907;28;20550;-74
2021/01/06 04:40:03;;;;;;;76.17;20.77;;;;;;;;;;5023758;28;20667;-74
2021/01/06 04:43:17;;;;;;;93.47;21.63;;;;;;;;;;5052625;22;21249;-73
2021/01/06 04:46:45;;;;;;;49.67;19.90;;;;;;;;;;5035346;28;20552;-73
2021/01/06 04:50:07;;;;;;;45.37;19.33;;;;;;;;;;5036396;28;20619;-73
2021/01/06 04:53:44;;;;;;;41.27;18.33;;;;;;;;;;5023617;28;20540;-73
2021/01/06 04:57:10;;;;;;;44.90;18.57;;;;;;;;;;5034896;28;20594;-73
2021/01/06 05:00:33;;;;;;;40.97;18.13;;;;;;;;;;5035674;28;21178;-73
2021/01/06 05:04:14;;;;;;;43.57;18.13;;;;;;;;;;5035837;28;20540;-73
2021/01/06 05:07:46;;;;;;;40.17;18.10;;;;;;;;;;5035775;28;21060;-73
2021/01/06 05:11:02;;;;;;;45.50;18.90;;;;;;;;;;5046126;28;20961;-73
2021/01/06 05:14:17;;;;;;;41.37;18.30;;;;;;;;;;5035595;28;20588;-74
2021/01/06 05:17:21;;;;;;;38.60;18.27;;;;;;;;;;5034495;28;20595;-74
2021/01/06 05:20:25;;;;;;;45.37;18.30;;;;;;;;;;5035468;28;20619;-74
2021/01/06 05:23:29;;;;;;;42.80;18.63;;;;;;;;;;5035150;28;20539;-74
2021/01/06 05:26:33;;;;;;;37.10;17.50;;;;;;;;;;5035318;28;20548;-74
2021/01/06 05:29:39;;;;;;;39.80;17.90;;;;;;;;;;5035020;28;20618;-74
2021/01/06 05:32:44;;;;;;;39.07;17.33;;;;;;;;;;5035027;28;20901;-74
2021/01/06 05:35:48;;;;;;;38.00;17.67;;;;;;;;;;5034564;28;20595;-74
2021/01/06 05:38:52;;;;;;;44.67;17.00;;;;;;;;;;5035029;28;20540;-75
2021/01/06 05:42:08;;;;;;;36.17;17.10;;;;;;;;;;5034952;28;20544;-75
2021/01/06 05:45:12;;;;;;;41.67;18.73;;;;;;;;;;5035293;28;20544;-75
2021/01/06 05:48:30;;;;;;;34.73;17.17;;;;;;;;;;5034134;28;20544;-75
2021/01/06 05:51:37;;;;;;;32.97;16.10;;;;;;;;;;5034102;28;20544;-75
2021/01/06 05:54:55;;;;;;;32.80;16.27;;;;;;;;;;5034086;28;20603;-74
2021/01/06 05:58:08;;;;;;;34.40;15.23;;;;;;;;;;5034784;28;20544;-74
2021/01/06 06:01:37;;;;;;;38.97;16.17;;;;;;;;;;5034703;28;20544;-75
2021/01/06 06:04:45;;;;;;;29.77;14.07;;;;;;;;;;5034652;28;20536;-75
2021/01/06 06:08:07;;;;;;;27.37;14.90;;;;;;;;;;5034726;28;20532;-75
2021/01/06 06:11:27;;;;;;;31.43;14.73;;;;;;;;;;5022140;28;20552;-75
2021/01/06 06:14:45;;;;;;;27.60;14.57;;;;;;;;;;5034650;28;20591;-75
2021/01/06 06:17:58;;;;;;;25.40;14.77;;;;;;;;;;5033356;28;20556;-75
2021/01/06 06:21:14;;;;;;;32.53;15.17;;;;;;;;;;5033990;28;20623;-75
2021/01/06 06:24:42;;;;;;;30.17;15.77;;;;;;;;;;5021899;28;21068;-75
2021/01/06 06:27:49;;;;;;;38.50;15.53;;;;;;;;;;5033964;28;20556;-75
2021/01/06 06:31:09;;;;;;;31.97;14.87;;;;;;;;;;5033340;28;21178;-75
2021/01/06 06:34:13;;;;;;;37.97;17.10;;;;;;;;;;5033299;28;20549;-75
2021/01/06 06:37:20;;;;;;;34.33;16.03;;;;;;;;;;5034416;28;20540;-75
2021/01/06 06:40:25;;;;;;;32.13;16.03;;;;;;;;;;5033034;28;20619;-75
2021/01/06 06:44:11;;;;;;;32.43;15.63;;;;;;;;;;5033660;28;20611;-75
2021/01/06 06:47:18;;;;;;;32.27;15.53;;;;;;;;;;5031979;28;20615;-75
2021/01/06 06:50:50;;;;;;;33.57;16.20;;;;;;;;;;5021600;28;20623;-75
2021/01/06 06:54:17;;;;;;;34.10;16.83;;;;;;;;;;5032985;28;20528;-76
2021/01/06 06:57:31;;;;;;;34.53;16.20;;;;;;;;;;5033482;28;20557;-76
2021/01/06 07:00:36;;;;;;;35.93;17.33;;;;;;;;;;5033019;28;20627;-76
2021/01/06 07:03:50;;;;;;;34.67;14.73;;;;;;;;;;5032754;28;20539;-76
2021/01/06 07:06:58;;;;;;;33.57;16.17;;;;;;;;;;5033526;28;20551;-76
2021/01/06 07:10:27;;;;;;;30.77;15.33;;;;;;;;;;5032382;28;21206;-77
2021/01/06 07:13:33;;;;;;;27.47;14.90;;;;;;;;;;5032622;28;20536;-77
2021/01/06 07:16:58;;;;;;;31.30;15.87;;;;;;;;;;5033530;28;20600;-77
2021/01/06 07:20:14;;;;;;;30.50;14.63;;;;;;;;;;5033669;28;20623;-78
2021/01/06 07:23:22;;;;;;;31.93;15.57;;;;;;;;;;5032671;28;20595;-77
2021/01/06 07:26:33;;;;;;;27.70;14.30;;;;;;;;;;5033345;28;20552;-77
2021/01/06 07:29:47;;;;;;;32.23;16.10;;;;;;;;;;5032229;28;20626;-77
2021/01/06 07:32:51;;;;;;;28.47;15.07;;;;;;;;;;5033271;28;20552;-76
2021/01/06 07:36:06;;;;;;;31.00;15.10;;;;;;;;;;5033128;28;20583;-77
2021/01/06 07:39:19;;;;;;;30.03;15.20;;;;;;;;;;5032845;28;21226;-78
2021/01/06 07:42:33;;;;;;;23.63;13.53;;;;;;;;;;5034331;28;20626;-78
2021/01/06 07:45:41;;;;;;;27.23;13.97;;;;;;;;;;5034662;28;20544;-77
2021/01/06 07:49:09;;;;;;;27.47;13.70;;;;;;;;;;5047757;28;20591;-77
2021/01/06 07:52:45;;;;;;;28.60;14.83;;;;;;;;;;5036295;28;21076;-77
2021/01/06 07:56:00;;;;;;;25.27;12.97;;;;;;;;;;5036797;28;21167;-76
2021/01/06 07:59:16;;;;;;;23.07;13.07;;;;;;;;;;5037313;28;20623;-77
2021/01/06 08:02:36;;;;;;;26.13;13.13;;;;;;;;;;5035999;28;21083;-77
2021/01/06 08:05:40;;;;;;;23.93;13.43;;;;;;;;;;5036166;28;21060;-74
2021/01/06 08:08:51;;;;;;;22.03;12.63;;;;;;;;;;5035660;28;21083;-75
2021/01/06 08:11:55;;;;;;;23.33;11.70;;;;;;;;;;5024544;28;20591;-76
2021/01/06 08:15:17;;;;;;;23.63;12.70;;;;;;;;;;5035853;28;20595;-76
2021/01/06 08:18:30;;;;;;;25.10;12.27;;;;;;;;;;5035821;28;20540;-76
2021/01/06 08:21:44;;;;;;;20.37;12.07;;;;;;;;;;5035868;28;20548;-76
2021/01/06 08:25:11;;;;;;;20.47;11.80;;;;;;;;;;5035814;28;20591;-76
2021/01/06 08:28:18;;;;;;;20.17;11.70;;;;;;;;;;5036058;28;21067;-76
2021/01/06 08:31:27;;;;;;;20.97;11.63;;;;;;;;;;5036143;28;20556;-75
2021/01/06 08:34:37;;;;;;;19.30;12.30;;;;;;;;;;5035405;28;20936;-75
2021/01/06 08:37:45;;;;;;;19.10;11.53;;;;;;;;;;5036319;28;20862;-75
2021/01/06 08:40:49;;;;;;;20.60;11.20;;;;;;;;;;5035322;28;20611;-75
2021/01/06 08:43:53;;;;;;;18.50;11.03;;;;;;;;;;5023720;28;20607;-74
2021/01/06 08:47:01;;;;;;;19.97;11.97;;;;;;;;;;5036011;28;20548;-74
2021/01/06 08:50:27;;;;;;;25.30;15.60;;;;;;;;;;5035154;28;20622;-74
2021/01/06 08:53:34;;;;;;;20.13;13.40;;;;;;;;;;5035400;28;20536;-76
2021/01/06 08:56:38;;;;;;;20.87;11.80;;;;;;;;;;5035549;28;20587;-76
2021/01/06 08:59:42;;;;;;;20.77;11.87;;;;;;;;;;5023442;28;20626;-75
2021/01/06 09:02:56;;;;;;;20.47;13.67;;;;;;;;;;5034740;28;20552;-75
2021/01/06 09:06:09;;;;;;;41.47;21.73;;;;;;;;;;5012713;28;20540;-75
2021/01/06 09:09:40;;;;;;;60.07;31.10;;;;;;;;;;5035850;28;20618;-75
2021/01/06 09:13:02;;;;;;;71.47;36.07;;;;;;;;;;5012271;28;20540;-75
2021/01/06 09:16:19;;;;;;;55.40;30.37;;;;;;;;;;5023447;28;20591;-75
2021/01/06 09:19:35;;;;;;;25.00;16.37;;;;;;;;;;5035549;28;20623;-75
2021/01/06 09:22:41;;;;;;;17.73;11.07;;;;;;;;;;5035485;28;20870;-75
2021/01/06 09:25:45;;;;;;;15.60;10.43;;;;;;;;;;5034541;28;20548;-75
2021/01/06 09:29:00;;;;;;;18.50;11.77;;;;;;;;;;5034288;28;20595;-76
2021/01/06 09:32:12;;;;;;;23.57;16.50;;;;;;;;;;5011769;28;20556;-76
2021/01/06 09:35:21;;;;;;;37.47;22.97;;;;;;;;;;5034314;28;20540;-76
2021/01/06 09:38:31;;;;;;;21.13;13.80;;;;;;;;;;5023121;28;20540;-76
2021/01/06 09:41:36;;;;;;;18.63;12.10;;;;;;;;;;5034212;28;21096;-76
2021/01/06 09:44:40;;;;;;;18.63;11.73;;;;;;;;;;5034305;28;20536;-76
2021/01/06 09:47:46;;;;;;;17.10;10.77;;;;;;;;;;5022596;28;20587;-76
2021/01/06 09:50:53;;;;;;;19.40;11.63;;;;;;;;;;5022472;28;20627;-76
2021/01/06 09:54:02;;;;;;;17.27;12.10;;;;;;;;;;5034144;28;20544;-76
2021/01/06 09:57:13;;;;;;;16.73;11.53;;;;;;;;;;5011126;28;20599;-76
2021/01/06 10:00:21;;;;;;;19.23;10.63;;;;;;;;;;5033864;28;20623;-76
2021/01/06 10:03:31;;;;;;;18.07;11.50;;;;;;;;;;5033878;28;20544;-75
2021/01/06 10:06:41;;;;;;;17.93;11.17;;;;;;;;;;5034678;28;20536;-75
2021/01/06 10:09:51;;;;;;;16.83;9.87;;;;;;;;;;5033224;28;20957;-75
2021/01/06 10:13:15;;;;;;;13.40;9.67;;;;;;;;;;5034468;28;20553;-75
2021/01/06 10:16:27;;;;;;;13.77;9.77;;;;;;;;;;5010908;28;20633;-74
2021/01/06 10:19:54;;;;;;;15.40;9.77;;;;;;;;;;5010543;28;20623;-75
2021/01/06 10:23:11;;;;;;;14.17;9.07;;;;;;;;;;5022092;28;20545;-75
2021/01/06 10:26:47;;;;;;;15.90;10.30;;;;;;;;;;5034058;28;21068;-75
2021/01/06 10:29:53;;;;;;;16.10;10.73;;;;;;;;;;5034096;28;20615;-76
2021/01/06 10:33:18;;;;;;;18.93;14.27;;;;;;;;;;5033917;28;20551;-76
2021/01/06 10:36:34;;;;;;;15.50;10.70;;;;;;;;;;5033159;28;20596;-76
2021/01/06 10:39:42;;;;;;;13.17;9.10;;;;;;;;;;5033836;28;20623;-76
2021/01/06 10:42:48;;;;;;;14.53;9.67;;;;;;;;;;5032812;28;21186;-77
2021/01/06 10:45:52;;;;;;;13.77;9.30;;;;;;;;;;5044305;23;20690;-76
2021/01/06 10:48:57;;;;;;;13.30;8.60;;;;;;;;;;5032852;28;20599;-76
2021/01/06 10:52:07;;;;;;;12.53;9.33;;;;;;;;;;5033561;28;20598;-76
2021/01/06 10:55:22;;;;;;;10.70;7.30;;;;;;;;;;5021579;28;21072;-77
2021/01/06 10:58:37;;;;;;;12.40;8.70;;;;;;;;;;5032880;28;20537;-77
2021/01/06 11:01:57;;;;;;;13.00;9.03;;;;;;;;;;5032350;28;20545;-76
2021/01/06 11:05:09;;;;;;;9.80;7.60;;;;;;;;;;5032381;28;20560;-77
2021/01/06 11:08:39;;;;;;;11.13;7.60;;;;;;;;;;5021292;28;20544;-77
2021/01/06 11:12:00;;;;;;;10.23;7.23;;;;;;;;;;5021170;28;20552;-77
2021/01/06 11:15:42;;;;;;;12.07;7.60;;;;;;;;;;5033894;28;20867;-76
2021/01/06 11:18:48;;;;;;;10.57;7.03;;;;;;;;;;5032462;28;20529;-76
2021/01/06 11:22:19;;;;;;;10.10;6.97;;;;;;;;;;5032162;28;20540;-76
2021/01/06 11:25:48;;;;;;;10.30;7.40;;;;;;;;;;5021200;28;20885;-76
2021/01/06 11:29:01;;;;;;;11.20;8.03;;;;;;;;;;5033119;28;20532;-76
2021/01/06 11:32:20;;;;;;;8.37;6.87;;;;;;;;;;5033208;28;20552;-76
2021/01/06 11:35:29;;;;;;;21.37;17.37;;;;;;;;;;5032391;28;20893;-76
2021/01/06 11:38:39;;;;;;;11.73;8.73;;;;;;;;;;5020918;28;20894;-76
2021/01/06 11:41:46;;;;;;;10.07;8.03;;;;;;;;;;5032230;28;21075;-76
2021/01/06 11:45:18;;;;;;;14.77;9.73;;;;;;;;;;5031824;28;20607;-76
2021/01/06 11:48:36;;;;;;;15.07;8.67;;;;;;;;;;5032182;28;20532;-75
2021/01/06 11:52:01;;;;;;;15.03;9.87;;;;;;;;;;5032094;28;20549;-75
2021/01/06 11:55:16;;;;;;;15.03;8.77;;;;;;;;;;5031986;28;20556;-74
2021/01/06 11:58:49;;;;;;;23.77;13.97;;;;;;;;;;5026506;28;20612;-74
2021/01/06 12:02:17;;;;;;;18.53;11.87;;;;;;;;;;5005832;28;21164;-74
2021/01/06 12:05:27;;;;;;;11.20;8.07;;;;;;;;;;5001033;28;20548;-75
2021/01/06 12:08:57;;;;;;;13.47;9.00;;;;;;;;;;5013102;28;21093;-76
2021/01/06 12:12:14;;;;;;;11.87;8.53;;;;;;;;;;5013038;28;20867;-75
2021/01/06 12:15:30;;;;;;;14.67;9.47;;;;;;;;;;5000816;28;20552;-75
2021/01/06 12:18:51;;;;;;;19.47;12.07;;;;;;;;;;5012629;28;20926;-75
2021/01/06 12:22:01;;;;;;;22.67;13.07;;;;;;;;;;5013010;28;21099;-76
2021/01/06 12:25:41;;;;;;;57.53;28.23;;;;;;;;;;5000869;28;20532;-76
2021/01/06 12:28:51;;;;;;;51.97;24.87;;;;;;;;;;4974494;28;20608;-76
2021/01/06 12:32:00;;;;;;;15.40;10.90;;;;;;;;;;5001072;28;20557;-77
2021/01/06 12:35:13;;;;;;;21.30;13.23;;;;;;;;;;5005201;28;20541;-77
2021/01/06 12:38:20;;;;;;;23.83;16.10;;;;;;;;;;5017931;28;20592;-77
2021/01/06 12:41:25;;;;;;;14.73;9.93;;;;;;;;;;5005824;28;20579;-77
2021/01/06 12:44:33;;;;;;;15.93;11.50;;;;;;;;;;5029304;28;20568;-78
2021/01/06 12:47:53;;;;;;;17.07;11.90;;;;;;;;;;5041922;28;20604;-78
2021/01/06 12:51:19;;;;;;;19.50;13.20;;;;;;;;;;5031353;28;21182;-79
2021/01/06 12:54:33;;;;;;;13.97;8.73;;;;;;;;;;5032670;28;20532;-78
2021/01/06 12:57:45;;;;;;;17.63;10.37;;;;;;;;;;5032516;28;20878;-79
2021/01/06 13:01:06;;;;;;;14.97;10.23;;;;;;;;;;5031702;28;20644;-79
2021/01/06 13:04:13;;;;;;;15.60;10.67;;;;;;;;;;5044806;28;20543;-79
2021/01/06 13:07:25;;;;;;;14.60;10.07;;;;;;;;;;5034326;28;20591;-80
2021/01/06 13:10:41;;;;;;;18.10;12.40;;;;;;;;;;5021801;28;20627;-81
2021/01/06 13:13:47;;;;;;;31.90;20.67;;;;;;;;;;5030386;28;20882;-81
2021/01/06 13:16:56;;;;;;;22.53;16.93;;;;;;;;;;5016005;28;20598;-81
2021/01/06 13:20:52;;;;;;;16.80;10.97;;;;;;;;;;5028048;28;20948;-81
2021/01/06 13:23:56;;;;;;;15.83;10.50;;;;;;;;;;5004306;28;20587;-81
2021/01/06 13:27:04;;;;;;;17.87;11.60;;;;;;;;;;5036267;28;20603;-82
2021/01/06 13:30:35;;;;;;;13.77;10.40;;;;;;;;;;5023374;28;20627;-82
2021/01/06 13:34:09;;;;;;;15.10;10.07;;;;;;;;;;4981123;28;20990;-82
2021/01/06 13:37:13;;;;;;;55.40;36.67;;;;;;;;;;4984270;28;21078;-82
2021/01/06 13:40:38;;;;;;;205.00;100.70;;;;;;;;;;4984405;28;20633;-81
2021/01/06 13:44:00;;;;;;;62.37;38.47;;;;;;;;;;4983759;28;20553;-81
2021/01/06 13:47:16;;;;;;;13.37;10.57;;;;;;;;;;4983537;28;20637;-80
2021/01/06 13:50:26;;;;;;;18.00;12.20;;;;;;;;;;4984316;28;20987;-80
2021/01/06 13:53:54;;;;;;;23.73;18.83;;;;;;;;;;4966841;28;20868;-80
2021/01/06 13:57:08;;;;;;;44.93;34.90;;;;;;;;;;4985245;28;20574;-80
2021/01/06 14:01:14;;;;;;;44.03;28.67;;;;;;;;;;5103111;27;21201;-80
2021/01/06 14:04:22;;;;;;;15.47;11.53;;;;;;;;;;5048593;28;20942;-80
2021/01/06 14:07:34;;;;;;;17.10;12.27;;;;;;;;;;5025952;28;20563;-79
2021/01/06 14:10:55;;;;;;;16.63;11.93;;;;;;;;;;5058546;28;20629;-80
2021/01/06 14:14:22;;;;;;;18.70;13.13;;;;;;;;;;5058357;28;20543;-80
2021/01/06 14:18:09;;;;;;;20.20;14.53;;;;;;;;;;5069830;28;20539;-80
2021/01/06 14:21:16;;;;;;;17.80;12.20;;;;;;;;;;5070083;28;20534;-80
2021/01/06 14:24:25;;;;;;;21.97;14.47;;;;;;;;;;5071793;28;20542;-80
2021/01/06 14:27:47;;;;;;;16.27;12.80;;;;;;;;;;5069708;28;20550;-80
2021/01/06 14:31:03;;;;;;;17.40;13.27;;;;;;;;;;5058040;28;20606;-77
2021/01/06 14:34:19;;;;;;;16.60;12.83;;;;;;;;;;5059057;28;20538;-78
2021/01/06 14:37:27;;;;;;;18.03;13.63;;;;;;;;;;5071019;28;21092;-77
2021/01/06 14:40:37;;;;;;;17.83;13.10;;;;;;;;;;5070515;28;21222;-78
2021/01/06 14:43:41;;;;;;;23.80;16.53;;;;;;;;;;5047991;28;20546;-77
2021/01/06 14:47:09;;;;;;;18.87;14.20;;;;;;;;;;5046865;28;20543;-77
2021/01/06 14:50:13;;;;;;;18.50;14.57;;;;;;;;;;5057292;28;20617;-77
2021/01/06 14:53:31;;;;;;;19.43;13.73;;;;;;;;;;5068996;28;20534;-77
2021/01/06 14:56:47;;;;;;;16.47;12.20;;;;;;;;;;5057237;28;20554;-77
2021/01/06 15:00:16;;;;;;;21.77;13.73;;;;;;;;;;5056929;28;20649;-76
2021/01/06 15:03:35;;;;;;;19.20;13.37;;;;;;;;;;5068692;28;20546;-76
2021/01/06 15:07:05;;;;;;;17.70;12.93;;;;;;;;;;5069701;28;21096;-76
2021/01/06 15:10:20;;;;;;;18.83;13.20;;;;;;;;;;5052795;28;20618;-75
2021/01/06 15:13:24;;;;;;;15.87;11.67;;;;;;;;;;5056109;28;20547;-75
2021/01/06 15:16:29;;;;;;;21.43;16.77;;;;;;;;;;5055770;28;20555;-75
2021/01/06 15:19:36;;;;;;;34.63;24.67;;;;;;;;;;5056130;28;20646;-75
2021/01/06 15:22:41;;;;;;;22.40;17.37;;;;;;;;;;5055155;28;20593;-75
2021/01/06 15:25:49;;;;;;;19.77;14.13;;;;;;;;;;5054794;28;20598;-75
2021/01/06 15:28:59;;;;;;;19.53;13.67;;;;;;;;;;5054895;28;20539;-75
2021/01/06 15:32:36;;;;;;;17.57;13.67;;;;;;;;;;5054040;28;20591;-74
2021/01/06 15:35:41;;;;;;;17.50;12.97;;;;;;;;;;5054436;28;20957;-74
2021/01/06 15:38:48;;;;;;;18.60;12.97;;;;;;;;;;5023272;28;20536;-75
2021/01/06 15:42:00;;;;;;;17.97;10.97;;;;;;;;;;5044774;28;20591;-74
2021/01/06 15:45:13;;;;;;;17.60;12.63;;;;;;;;;;5054435;28;20579;-74
2021/01/06 15:48:26;;;;;;;19.60;12.10;;;;;;;;;;5046151;28;21194;-74
2021/01/06 15:51:38;;;;;;;17.47;12.63;;;;;;;;;;5052523;28;20575;-75
2021/01/06 15:54:42;;;;;;;15.47;11.57;;;;;;;;;;5054484;28;20614;-74
2021/01/06 15:57:50;;;;;;;15.73;11.50;;;;;;;;;;5053873;28;20587;-75
2021/01/06 16:00:54;;;;;;;21.93;15.77;;;;;;;;;;5053319;28;20653;-74
2021/01/06 16:04:04;;;;;;;25.70;21.13;;;;;;;;;;5054037;28;20890;-74
2021/01/06 16:07:14;;;;;;;17.03;13.73;;;;;;;;;;5053567;28;21192;-75
2021/01/06 16:10:22;;;;;;;17.67;11.93;;;;;;;;;;5054844;28;21176;-75
2021/01/06 16:13:33;;;;;;;18.83;11.93;;;;;;;;;;5041356;28;20610;-75
2021/01/06 16:16:49;;;;;;;16.63;12.47;;;;;;;;;;5054760;28;20910;-76
2021/01/06 16:19:58;;;;;;;38.67;25.43;;;;;;;;;;5054268;28;20646;-75
2021/01/06 16:23:03;;;;;;;24.03;16.60;;;;;;;;;;5052344;28;20587;-75
2021/01/06 16:26:19;;;;;;;25.63;17.70;;;;;;;;;;5053380;28;20594;-75
2021/01/06 16:29:41;;;;;;;32.13;19.40;;;;;;;;;;5042019;28;20606;-75
2021/01/06 16:32:58;;;;;;;20.77;13.70;;;;;;;;;;5041212;28;20599;-75
2021/01/06 16:36:35;;;;;;;19.13;12.73;;;;;;;;;;5054048;28;20587;-75
2021/01/06 16:39:40;;;;;;;16.43;11.13;;;;;;;;;;5054111;28;20658;-74
2021/01/06 16:42:55;;;;;;;16.00;11.43;;;;;;;;;;5053350;28;20594;-75
2021/01/06 16:46:21;;;;;;;17.27;11.93;;;;;;;;;;5039667;28;20579;-75
2021/01/06 16:49:31;;;;;;;21.20;13.90;;;;;;;;;;5053211;28;20615;-75
2021/01/06 16:52:36;;;;;;;20.90;14.03;;;;;;;;;;5052946;28;21136;-75
2021/01/06 16:55:40;;;;;;;32.50;19.50;;;;;;;;;;5053128;28;20918;-75
2021/01/06 16:58:45;;;;;;;83.47;42.80;;;;;;;;;;5052510;28;20641;-75
2021/01/06 17:01:58;;;;;;;29.70;19.57;;;;;;;;;;5053473;28;20578;-76
2021/01/06 17:05:04;;;;;;;31.83;24.03;;;;;;;;;;5053212;28;20591;-75
2021/01/06 17:08:15;;;;;;;19.60;15.00;;;;;;;;;;5053786;28;20543;-75
2021/01/06 17:11:19;;;;;;;27.67;16.07;;;;;;;;;;5053291;28;20591;-76
2021/01/06 17:14:25;;;;;;;30.67;16.33;;;;;;;;;;5025898;28;20638;-76
2021/01/06 17:17:34;;;;;;;51.93;24.70;;;;;;;;;;5013808;28;20561;-76
2021/01/06 17:20:38;;;;;;;80.43;37.57;;;;;;;;;;5042150;28;20667;-76
2021/01/06 17:23:43;;;;;;;44.97;23.30;;;;;;;;;;5032730;28;21148;-77
2021/01/06 17:26:55;;;;;;;31.60;19.30;;;;;;;;;;5032484;28;20591;-77
2021/01/06 17:30:11;;;;;;;31.27;19.47;;;;;;;;;;5033166;28;21185;-77
2021/01/06 17:33:26;;;;;;;30.30;17.33;;;;;;;;;;5020597;28;20548;-77
2021/01/06 17:36:30;;;;;;;31.77;17.80;;;;;;;;;;5032307;28;20600;-75
2021/01/06 17:39:38;;;;;;;49.43;26.97;;;;;;;;;;5028662;28;20659;-75
2021/01/06 17:42:45;;;;;;;50.40;28.13;;;;;;;;;;5032588;28;20540;-75
2021/01/06 17:45:50;;;;;;;42.57;22.93;;;;;;;;;;5032652;28;20544;-75
2021/01/06 17:48:55;;;;;;;39.57;22.23;;;;;;;;;;5020551;28;20592;-75
2021/01/06 17:51:59;;;;;;;29.53;16.10;;;;;;;;;;5030730;28;20611;-76
2021/01/06 17:55:06;;;;;;;28.63;15.93;;;;;;;;;;5012602;28;20553;-75
2021/01/06 17:58:10;;;;;;;28.30;16.77;;;;;;;;;;5012978;28;20612;-76
2021/01/06 18:01:15;;;;;;;25.53;15.63;;;;;;;;;;5028062;28;20619;-77
2021/01/06 18:04:21;;;;;;;25.90;14.97;;;;;;;;;;5031951;28;20954;-76
2021/01/06 18:07:30;;;;;;;41.30;21.70;;;;;;;;;;5023124;28;20620;-76
2021/01/06 18:10:42;;;;;;;39.17;21.97;;;;;;;;;;5001044;28;20624;-76
2021/01/06 18:13:47;;;;;;;25.17;14.73;;;;;;;;;;5032549;28;20547;-76
2021/01/06 18:16:59;;;;;;;26.27;15.00;;;;;;;;;;5032666;28;20587;-75
2021/01/06 18:20:04;;;;;;;29.70;16.87;;;;;;;;;;5018129;28;20652;-75
2021/01/06 18:23:19;;;;;;;32.10;17.57;;;;;;;;;;5018544;28;21204;-76
2021/01/06 18:26:23;;;;;;;25.27;15.43;;;;;;;;;;5023133;28;20616;-75
2021/01/06 18:29:33;;;;;;;27.37;15.73;;;;;;;;;;5014889;28;20639;-74
2021/01/06 18:32:37;;;;;;;39.80;23.33;;;;;;;;;;5031846;28;21110;-75
2021/01/06 18:35:41;;;;;;;30.17;16.73;;;;;;;;;;5027613;28;20607;-74
2021/01/06 18:38:53;;;;;;;30.60;16.53;;;;;;;;;;5032498;28;20543;-75
2021/01/06 18:41:57;;;;;;;22.83;13.77;;;;;;;;;;5026098;28;20580;-75